createdAt,value
2019-06-08T00:02:00.000Z,19.8
2019-06-08T00:07:00.000Z,19.8
2019-06-08T00:12:00.000Z,19.7
2019-06-08T00:17:00.000Z,19.6
2019-06-08T00:22:00.000Z,19.6
2019-06-08T00:27:00.000Z,19.5
2019-06-08T00:32:00.000Z,19.5
2019-06-08T00:37:00.000Z,19.4
2019-06-08T00:42:00.000Z,19.4
2019-06-08T00:47:00.000Z,19.4
2019-06-08T00:52:00.000Z,19.4
2019-06-08T00:57:00.000Z,19.4
2019-06-08T01:02:00.000Z,19.4
2019-06-08T01:07:00.000Z,19.4
2019-06-08T01:12:00.000Z,19.4
2019-06-08T01:17:00.000Z,19.4
2019-06-08T01:23:00.000Z,19.4
2019-06-08T01:28:00.000Z,19.3
2019-06-08T01:33:00.000Z,19.3
2019-06-08T01:38:00.000Z,19.3
2019-06-08T01:43:00.000Z,19.2
2019-06-08T01:48:00.000Z,19.2
2019-06-08T01:53:00.000Z,19.2
2019-06-08T01:58:00.000Z,19.2
2019-06-08T02:03:00.000Z,19.2
2019-06-08T02:08:00.000Z,19.2
2019-06-08T02:13:00.000Z,19.2
2019-06-08T02:18:00.000Z,19.0
2019-06-08T02:23:00.000Z,18.9
2019-06-08T02:28:00.000Z,18.9
2019-06-08T02:33:00.000Z,18.9
2019-06-08T02:38:00.000Z,19.0
2019-06-08T02:43:00.000Z,19.1
2019-06-08T02:48:00.000Z,19.2
2019-06-08T02:54:00.000Z,19.2
2019-06-08T02:59:00.000Z,19.2
2019-06-08T03:04:00.000Z,19.2
2019-06-08T03:09:00.000Z,19.3
2019-06-08T03:14:00.000Z,19.4
2019-06-08T03:24:00.000Z,19.6
2019-06-08T03:29:00.000Z,19.5
2019-06-08T03:34:00.000Z,19.5
2019-06-08T03:39:00.000Z,19.4
2019-06-08T03:44:00.000Z,19.4
2019-06-08T03:49:00.000Z,19.3
2019-06-08T03:54:00.000Z,19.2
2019-06-08T03:59:00.000Z,19.2
2019-06-08T04:04:00.000Z,19.2
2019-06-08T04:09:00.000Z,19.2
2019-06-08T04:14:00.000Z,19.2
2019-06-08T04:20:00.000Z,19.2
2019-06-08T04:25:00.000Z,19.2
2019-06-08T04:30:00.000Z,19.1
2019-06-08T04:35:00.000Z,19.1
2019-06-08T04:40:00.000Z,19.0
2019-06-08T04:45:00.000Z,19.0
2019-06-08T04:50:00.000Z,19.0
2019-06-08T04:55:00.000Z,18.9
2019-06-08T05:00:00.000Z,18.9
2019-06-08T05:05:00.000Z,19.0
2019-06-08T05:10:00.000Z,19.0
2019-06-08T05:15:00.000Z,19.1
2019-06-08T05:20:00.000Z,19.2
2019-06-08T05:25:00.000Z,19.2
2019-06-08T05:30:00.000Z,19.3
2019-06-08T05:35:00.000Z,19.3
2019-06-08T05:40:00.000Z,19.3
2019-06-08T05:45:00.000Z,19.4
2019-06-08T05:50:00.000Z,19.4
2019-06-08T05:56:00.000Z,19.5
2019-06-08T06:01:00.000Z,19.5
2019-06-08T06:06:00.000Z,19.5
2019-06-08T06:11:00.000Z,19.6
2019-06-08T06:16:00.000Z,19.7
2019-06-08T06:21:00.000Z,19.7
2019-06-08T06:26:00.000Z,19.8
2019-06-08T06:31:00.000Z,19.9
2019-06-08T06:36:00.000Z,20.0
2019-06-08T06:41:00.000Z,20.1
2019-06-08T06:46:00.000Z,20.3
2019-06-08T06:51:00.000Z,20.6
2019-06-08T06:56:00.000Z,21.0
2019-06-08T07:01:00.000Z,21.1
2019-06-08T07:06:00.000Z,21.4
2019-06-08T07:11:00.000Z,21.6
2019-06-08T07:16:00.000Z,21.9
2019-06-08T07:21:00.000Z,22.0
2019-06-08T07:26:00.000Z,22.1
2019-06-08T07:31:00.000Z,22.4
2019-06-08T07:36:00.000Z,22.4
2019-06-08T07:41:00.000Z,22.6
2019-06-08T07:46:00.000Z,22.8
2019-06-08T07:51:00.000Z,23.0
2019-06-08T07:57:00.000Z,23.2
2019-06-08T08:02:00.000Z,23.3
2019-06-08T08:07:00.000Z,23.4
2019-06-08T08:12:00.000Z,23.6
2019-06-08T08:17:00.000Z,23.7
2019-06-08T08:22:00.000Z,23.8
2019-06-08T08:27:00.000Z,24.1
2019-06-08T08:32:00.000Z,24.3
2019-06-08T08:37:00.000Z,24.2
2019-06-08T08:42:00.000Z,24.2
2019-06-08T08:47:00.000Z,24.3
2019-06-08T08:52:00.000Z,24.5
2019-06-08T08:57:00.000Z,24.5
2019-06-08T09:02:00.000Z,24.5
2019-06-08T09:07:00.000Z,24.4
2019-06-08T09:12:00.000Z,24.5
2019-06-08T09:17:00.000Z,24.6
2019-06-08T09:22:00.000Z,24.7
2019-06-08T09:28:00.000Z,25.1
2019-06-08T09:33:00.000Z,25.1
2019-06-08T09:38:00.000Z,25.2
2019-06-08T09:43:00.000Z,25.2
2019-06-08T09:48:00.000Z,25.1
2019-06-08T09:58:00.000Z,24.8
2019-06-08T10:03:00.000Z,24.9
2019-06-08T10:08:00.000Z,25.0
2019-06-08T10:13:00.000Z,25.3
2019-06-08T10:18:00.000Z,25.4
2019-06-08T10:23:00.000Z,25.7
2019-06-08T10:28:00.000Z,25.7
2019-06-08T10:33:00.000Z,25.8
2019-06-08T10:38:00.000Z,25.7
2019-06-08T10:43:00.000Z,25.7
2019-06-08T10:48:00.000Z,25.7
2019-06-08T10:53:00.000Z,25.4
2019-06-08T10:58:00.000Z,25.3
2019-06-08T11:03:00.000Z,25.2
2019-06-08T11:09:00.000Z,25.2
2019-06-08T11:14:00.000Z,25.2
2019-06-08T11:19:00.000Z,25.2
2019-06-08T11:24:00.000Z,25.2
2019-06-08T11:29:00.000Z,25.0
2019-06-08T11:34:00.000Z,24.9
2019-06-08T11:39:00.000Z,24.7
2019-06-08T11:44:00.000Z,24.7
2019-06-08T11:49:00.000Z,24.6
2019-06-08T11:54:00.000Z,24.5
2019-06-08T11:59:00.000Z,24.4
2019-06-08T12:04:00.000Z,24.2
2019-06-08T12:09:00.000Z,24.3
2019-06-08T12:14:00.000Z,24.3
2019-06-08T12:19:00.000Z,24.4
2019-06-08T12:24:00.000Z,24.5
2019-06-08T12:29:00.000Z,24.6
2019-06-08T12:34:00.000Z,25.0
2019-06-08T12:39:00.000Z,25.2
2019-06-08T12:44:00.000Z,25.3
2019-06-08T12:49:00.000Z,25.5
2019-06-08T12:54:00.000Z,25.6
2019-06-08T13:00:00.000Z,25.6
2019-06-08T13:05:00.000Z,25.5
2019-06-08T13:10:00.000Z,25.6
2019-06-08T13:15:00.000Z,25.7
2019-06-08T13:20:00.000Z,25.9
2019-06-08T13:25:00.000Z,26.1
2019-06-08T13:30:00.000Z,26.3
2019-06-08T13:35:00.000Z,26.4
2019-06-08T13:40:00.000Z,26.6
2019-06-08T13:45:00.000Z,26.7
2019-06-08T13:50:00.000Z,26.8
2019-06-08T13:55:00.000Z,26.7
2019-06-08T14:00:00.000Z,26.6
2019-06-08T14:06:00.000Z,26.7
2019-06-08T14:11:00.000Z,26.7
2019-06-08T14:16:00.000Z,26.6
2019-06-08T14:21:00.000Z,26.7
2019-06-08T14:26:00.000Z,26.6
2019-06-08T14:31:00.000Z,26.8
2019-06-08T14:36:00.000Z,26.6
2019-06-08T14:41:00.000Z,26.5
2019-06-08T14:46:00.000Z,26.3
2019-06-08T14:51:00.000Z,26.2
2019-06-08T14:56:00.000Z,26.0
2019-06-08T15:01:00.000Z,26.3
2019-06-08T15:06:00.000Z,26.4
2019-06-08T15:11:00.000Z,26.3
2019-06-08T15:16:00.000Z,26.1
2019-06-08T15:21:00.000Z,25.8
2019-06-08T15:26:00.000Z,25.6
2019-06-08T15:31:00.000Z,25.5
2019-06-08T15:36:00.000Z,25.3
2019-06-08T15:41:00.000Z,25.2
2019-06-08T15:46:00.000Z,25.2
2019-06-08T15:51:00.000Z,25.2
2019-06-08T15:56:00.000Z,25.1
2019-06-08T16:01:00.000Z,25.0
2019-06-08T16:06:00.000Z,25.0
2019-06-08T16:11:00.000Z,25.0
2019-06-08T16:16:00.000Z,25.1
2019-06-08T16:21:00.000Z,25.1
2019-06-08T16:26:00.000Z,25.1
2019-06-08T16:31:00.000Z,25.0
2019-06-08T16:36:00.000Z,25.0
2019-06-08T16:41:00.000Z,24.9
2019-06-08T16:46:00.000Z,24.8
2019-06-08T16:52:00.000Z,24.6
2019-06-08T16:57:00.000Z,24.6
2019-06-08T17:02:00.000Z,24.5
2019-06-08T17:07:00.000Z,24.5
2019-06-08T17:12:00.000Z,24.4
2019-06-08T17:17:00.000Z,24.4
2019-06-08T17:22:00.000Z,24.3
2019-06-08T17:27:00.000Z,24.2
2019-06-08T17:32:00.000Z,24.2
2019-06-08T17:37:00.000Z,24.1
2019-06-08T17:42:00.000Z,23.9
2019-06-08T17:47:00.000Z,23.7
2019-06-08T17:52:00.000Z,23.6
2019-06-08T17:57:00.000Z,23.4
2019-06-08T18:02:00.000Z,23.3
2019-06-08T18:07:00.000Z,23.2
2019-06-08T18:12:00.000Z,23.1
2019-06-08T18:17:00.000Z,23.0
2019-06-08T18:23:00.000Z,22.8
2019-06-08T18:28:00.000Z,22.7
2019-06-08T18:33:00.000Z,22.6
2019-06-08T18:38:00.000Z,22.5
2019-06-08T18:43:00.000Z,22.4
2019-06-08T18:48:00.000Z,22.2
2019-06-08T18:53:00.000Z,22.1
2019-06-08T18:58:00.000Z,22.0
2019-06-08T19:03:00.000Z,21.9
2019-06-08T19:08:00.000Z,21.8
2019-06-08T19:13:00.000Z,21.7
2019-06-08T19:18:00.000Z,21.6
2019-06-08T19:23:00.000Z,21.5
2019-06-08T19:28:00.000Z,21.4
2019-06-08T19:33:00.000Z,21.3
2019-06-08T19:38:00.000Z,21.3
2019-06-08T19:43:00.000Z,21.2
2019-06-08T19:48:00.000Z,21.1
2019-06-08T19:53:00.000Z,21.0
2019-06-08T19:59:00.000Z,20.9
2019-06-08T20:04:00.000Z,20.8
2019-06-08T20:09:00.000Z,20.8
2019-06-08T20:14:00.000Z,20.7
2019-06-08T20:19:00.000Z,20.6
2019-06-08T20:24:00.000Z,20.5
2019-06-08T20:29:00.000Z,20.5
2019-06-08T20:34:00.000Z,20.4
2019-06-08T20:39:00.000Z,20.4
2019-06-08T20:44:00.000Z,20.3
2019-06-08T20:49:00.000Z,20.3
2019-06-08T20:54:00.000Z,20.2
2019-06-08T20:59:00.000Z,20.2
2019-06-08T21:04:00.000Z,20.2
2019-06-08T21:09:00.000Z,20.2
2019-06-08T21:14:00.000Z,20.2
2019-06-08T21:19:00.000Z,20.2
2019-06-08T21:24:00.000Z,20.2
2019-06-08T21:29:00.000Z,20.2
2019-06-08T21:34:00.000Z,20.2
2019-06-08T21:40:00.000Z,20.2
2019-06-08T21:45:00.000Z,20.2
2019-06-08T21:50:00.000Z,20.2
2019-06-08T21:55:00.000Z,20.2
2019-06-08T22:00:00.000Z,20.2
2019-06-08T22:05:00.000Z,20.2
2019-06-08T22:10:00.000Z,20.2
2019-06-08T22:15:00.000Z,20.2
2019-06-08T22:20:00.000Z,20.2
2019-06-08T22:25:00.000Z,20.2
2019-06-08T22:30:00.000Z,20.2
2019-06-08T22:35:00.000Z,20.2
2019-06-08T22:40:00.000Z,20.2
2019-06-08T22:46:00.000Z,20.1
2019-06-08T22:51:00.000Z,20.1
2019-06-08T22:56:00.000Z,20.1
2019-06-08T23:01:00.000Z,20.1
2019-06-08T23:06:00.000Z,20.2
2019-06-08T23:11:00.000Z,20.2
2019-06-08T23:16:00.000Z,20.2
2019-06-08T23:21:00.000Z,20.3
2019-06-08T23:26:00.000Z,20.3
2019-06-08T23:31:00.000Z,20.4
2019-06-08T23:41:00.000Z,20.5
2019-06-08T23:46:00.000Z,20.6
2019-06-08T23:51:00.000Z,20.6
2019-06-08T23:56:00.000Z,20.6
